Airfield :
LOGIN :

Register | Disclaimer

   EN    FR    IT 

 










Legend :    VFR   Marginal VFR   IFR   Intensive IFR   Very Intensive IFR
Visi :
Ceiling :
>= 8 km
>= 3000ft
5 to 8 km
1000 to 3000 ft
1500m to 5 km
500 to 1000 ft
800 to 1500m
200 to 500 ft
< 800m
< 200 ft
Symbols :   Thunderstorms  Fog  Heavy snow  Heavy precipitations  Wind > 20 kt
SIGMETs :     Misc.  Thunderstorms  Icing  Turbulence  Mountain Waves  Volcanic Ashes






- Airport Elevation : 0 ft
- IATA code : SOG


ENSG - Sogndal

CURRENT METAR :
  • 131620Z AUTO 08004KT 020V120 9999 BKN094/// 25/09 Q1012 RMK WIND 3806FT 10009KT

EXPIRED METARs :
  • 131550Z AUTO 05004KT 9999 SCT090/// 23/09 Q1012 RMK WIND 3806FT 12010KT
  • 131520Z AUTO 05005KT 020V080 9999 BKN092/// 24/09 Q1013 RMK WIND 3806FT 10011KT
  • 131450Z AUTO 05006KT 9999 BKN088/// 23/10 Q1013 RMK WIND 3806FT 09012KT
  • 131420Z AUTO 05006KT 9999 OVC084/// 23/09 Q1013 RMK WIND 3806FT 09011KT
  • 131350Z AUTO 06004KT 030V100 9999 OVC084/// 23/09 Q1013 RMK WIND 3806FT 10011KT
  • 131320Z AUTO 06006KT 040V100 9999 OVC082/// 23/10 Q1013 RMK WIND 3806FT 10010KT
  • 131250Z AUTO 07004KT 040V100 9999 OVC078/// 23/09 Q1013 RMK WIND 3806FT 09011KT
  • 131220Z AUTO 06004KT 020V120 9999 BKN078/// 23/10 Q1014 RMK WIND 3806FT 09010KT
  • 131150Z AUTO 07003KT 010V130 9999 BKN076/// 22/09 Q1014 RMK WIND 3806FT 09012KT

Expired Forecast.



MET'MAP, your aeronautical weather chart ! - Copyright ORBIFLY December 2007 - Disclaimer

ORBIFLY MET'MAP TEAM :

Programming & Development : Alexandra Zaïnal
Original concept : Baudouin d'Aumeries
Technical & hardware support : Manuel Goepfert
Assistance : Marc-Olivier Méhu




SOURCES & CREDITS :

   NOAA